createdAt,value
2023-02-06T00:01:14.431Z,0.68
2023-02-06T00:03:45.388Z,0.40
2023-02-06T00:06:15.730Z,0.52
2023-02-06T00:08:48.031Z,0.40
2023-02-06T00:11:21.303Z,0.28
2023-02-06T00:13:52.502Z,0.43
2023-02-06T00:16:26.341Z,0.35
2023-02-06T00:18:58.421Z,0.40
2023-02-06T00:21:30.288Z,0.45
2023-02-06T00:24:04.278Z,0.40
2023-02-06T00:26:35.229Z,0.57
2023-02-06T00:29:05.833Z,0.20
2023-02-06T00:31:37.131Z,0.45
2023-02-06T00:34:08.148Z,0.28
2023-02-06T00:36:39.409Z,0.30
2023-02-06T00:39:11.601Z,0.50
2023-02-06T00:41:42.510Z,0.30
2023-02-06T00:44:13.346Z,0.40
2023-02-06T00:46:44.629Z,0.40
2023-02-06T00:49:15.220Z,0.40
2023-02-06T00:51:45.976Z,0.43
2023-02-06T00:54:18.439Z,0.45
2023-02-06T00:56:49.230Z,0.40
2023-02-06T00:59:20.365Z,0.40
2023-02-06T01:01:51.712Z,0.30
2023-02-06T01:04:22.542Z,0.50
2023-02-06T01:06:54.008Z,0.30
2023-02-06T01:09:26.761Z,0.30
2023-02-06T01:11:56.739Z,0.30
2023-02-06T01:14:27.940Z,0.55
2023-02-06T01:16:59.086Z,0.30
2023-02-06T01:19:29.172Z,0.20
2023-02-06T01:21:59.853Z,0.45
2023-02-06T01:24:31.579Z,0.40
2023-02-06T01:27:02.345Z,0.45
2023-02-06T01:29:33.505Z,0.50
2023-02-06T01:32:04.165Z,0.30
2023-02-06T01:34:35.566Z,0.60
2023-02-06T01:37:06.344Z,0.28
2023-02-06T01:39:39.615Z,0.30
2023-02-06T01:42:10.394Z,0.30
2023-02-06T01:44:40.859Z,0.30
2023-02-06T01:47:13.915Z,0.25
2023-02-06T01:49:50.468Z,0.17
2023-02-06T01:52:26.685Z,0.30
2023-02-06T01:55:03.689Z,0.47
2023-02-06T01:57:36.089Z,0.20
2023-02-06T02:00:12.866Z,0.57
2023-02-06T02:02:48.739Z,0.50
2023-02-06T02:05:22.385Z,0.40
2023-02-06T02:08:02.992Z,0.20
2023-02-06T02:10:35.485Z,0.60
2023-02-06T02:13:06.222Z,0.52
2023-02-06T02:15:48.901Z,0.35
2023-02-06T02:18:43.526Z,0.40
2023-02-06T02:22:01.032Z,0.32
2023-02-06T02:25:08.520Z,0.20
2023-02-06T02:28:28.272Z,0.40
2023-02-06T02:31:48.809Z,0.38
2023-02-06T02:35:07.933Z,0.50
2023-02-06T02:37:56.055Z,0.35
2023-02-06T02:40:37.123Z,0.40
2023-02-06T02:43:21.035Z,0.30
2023-02-06T02:46:03.070Z,0.60
2023-02-06T02:48:40.496Z,0.60
2023-02-06T02:51:14.379Z,0.40
2023-02-06T02:53:45.189Z,0.40
2023-02-06T02:56:24.970Z,0.50
2023-02-06T02:59:01.181Z,0.20
2023-02-06T03:01:38.854Z,0.30
2023-02-06T03:04:15.328Z,0.75
2023-02-06T03:07:16.682Z,0.60
2023-02-06T03:10:01.291Z,0.75
2023-02-06T03:12:47.683Z,0.50
2023-02-06T03:15:32.328Z,0.35
2023-02-06T03:18:10.183Z,0.50
2023-02-06T03:20:47.916Z,0.40
2023-02-06T03:23:27.496Z,0.40
2023-02-06T03:26:04.727Z,0.70
2023-02-06T03:28:38.841Z,0.30
2023-02-06T03:31:14.637Z,0.47
2023-02-06T03:33:54.907Z,0.70
2023-02-06T03:36:25.411Z,0.40
2023-02-06T03:38:57.942Z,0.47
2023-02-06T03:41:34.378Z,0.60
2023-02-06T03:44:11.654Z,0.43
2023-02-06T03:46:46.228Z,0.40
2023-02-06T03:49:20.819Z,0.52
2023-02-06T03:51:57.686Z,0.40
2023-02-06T03:54:32.233Z,0.50
2023-02-06T03:57:06.515Z,0.82
2023-02-06T03:59:37.425Z,0.55
2023-02-06T04:02:09.569Z,1.02
2023-02-06T04:04:43.716Z,0.55
2023-02-06T04:07:22.449Z,0.70
2023-02-06T04:09:55.723Z,0.90
2023-02-06T04:12:27.589Z,1.13
2023-02-06T04:14:58.173Z,0.90
2023-02-06T04:17:46.363Z,1.00
2023-02-06T04:20:22.367Z,0.50
2023-02-06T04:22:52.613Z,0.80
2023-02-06T04:25:25.646Z,0.65
2023-02-06T04:27:56.449Z,0.60
2023-02-06T04:30:27.069Z,0.70
2023-02-06T04:32:57.663Z,0.63
2023-02-06T04:35:27.866Z,0.65
2023-02-06T04:37:58.061Z,0.40
2023-02-06T04:40:30.930Z,0.52
2023-02-06T04:43:01.586Z,0.55
2023-02-06T04:45:32.210Z,0.80
2023-02-06T04:48:02.445Z,0.60
2023-02-06T04:50:34.909Z,0.70
2023-02-06T04:53:05.187Z,1.25
2023-02-06T04:55:38.338Z,1.05
2023-02-06T04:58:09.191Z,1.00
2023-02-06T05:00:40.170Z,0.80
2023-02-06T05:03:10.902Z,0.80
2023-02-06T05:05:41.008Z,0.88
2023-02-06T05:08:11.639Z,0.73
2023-02-06T05:10:44.357Z,1.20
2023-02-06T05:13:15.260Z,1.10
2023-02-06T05:15:45.299Z,1.35
2023-02-06T05:18:17.573Z,1.25
2023-02-06T05:20:48.786Z,0.88
2023-02-06T05:23:19.311Z,1.05
2023-02-06T05:25:53.080Z,1.00
2023-02-06T05:28:23.908Z,0.88
2023-02-06T05:30:54.885Z,0.73
2023-02-06T05:33:26.228Z,1.10
2023-02-06T05:35:56.511Z,1.25
2023-02-06T05:38:27.763Z,1.17
2023-02-06T05:40:59.989Z,1.02
2023-02-06T05:43:30.724Z,1.17
2023-02-06T05:46:01.446Z,0.90
2023-02-06T05:48:33.348Z,0.80
2023-02-06T05:51:04.303Z,1.00
2023-02-06T05:53:35.481Z,1.27
2023-02-06T05:56:08.999Z,1.00
2023-02-06T05:58:39.140Z,0.73
2023-02-06T06:01:10.320Z,1.10
2023-02-06T06:03:41.197Z,1.00
2023-02-06T06:06:12.312Z,1.13
2023-02-06T06:08:42.798Z,1.05
2023-02-06T06:11:15.952Z,1.02
2023-02-06T06:13:46.605Z,1.00
2023-02-06T06:16:17.244Z,1.30
2023-02-06T06:18:47.932Z,1.48
2023-02-06T06:21:19.079Z,1.08
2023-02-06T06:23:49.752Z,1.25
2023-02-06T06:26:21.961Z,1.70
2023-02-06T06:28:52.479Z,1.30
2023-02-06T06:31:23.178Z,0.93
2023-02-06T06:33:54.689Z,0.77
2023-02-06T06:36:24.991Z,1.15
2023-02-06T06:38:56.428Z,1.45
2023-02-06T06:41:29.246Z,0.85
2023-02-06T06:43:59.812Z,1.10
2023-02-06T06:46:30.427Z,1.27
2023-02-06T06:49:01.778Z,0.80
2023-02-06T06:51:32.558Z,0.82
2023-02-06T06:54:03.901Z,1.00
2023-02-06T06:56:36.461Z,1.15
2023-02-06T06:59:07.145Z,1.20
2023-02-06T07:01:37.894Z,1.35
2023-02-06T07:04:09.149Z,1.30
2023-02-06T07:06:39.952Z,1.30
2023-02-06T07:09:10.097Z,1.23
2023-02-06T07:11:43.222Z,1.80
2023-02-06T07:14:13.980Z,1.60
2023-02-06T07:16:45.740Z,1.45
2023-02-06T07:19:16.406Z,1.23
2023-02-06T07:21:47.234Z,1.60
2023-02-06T07:24:17.434Z,1.10
2023-02-06T07:26:49.814Z,1.38
2023-02-06T07:29:20.134Z,1.60
2023-02-06T07:31:50.910Z,1.38
2023-02-06T07:34:22.187Z,1.20
2023-02-06T07:36:52.906Z,1.42
2023-02-06T07:39:23.589Z,1.17
2023-02-06T07:41:56.737Z,1.30
2023-02-06T07:44:27.399Z,1.05
2023-02-06T07:46:59.215Z,1.42
2023-02-06T07:49:30.481Z,1.40
2023-02-06T07:52:01.190Z,1.33
2023-02-06T07:54:32.036Z,1.63
2023-02-06T07:57:04.642Z,1.30
2023-02-06T07:59:35.418Z,1.42
2023-02-06T08:02:06.165Z,1.08
2023-02-06T08:04:38.739Z,1.60
2023-02-06T08:07:15.285Z,1.20
2023-02-06T08:09:45.572Z,1.30
2023-02-06T08:12:18.326Z,0.95
2023-02-06T08:14:49.025Z,1.17
2023-02-06T08:17:20.044Z,1.15
2023-02-06T08:19:51.928Z,1.48
2023-02-06T08:22:22.583Z,1.58
2023-02-06T08:24:53.002Z,1.23
2023-02-06T08:27:25.941Z,1.55
2023-02-06T08:29:57.681Z,1.40
2023-02-06T08:32:28.434Z,1.50
2023-02-06T08:34:58.582Z,1.50
2023-02-06T08:37:29.311Z,1.00
2023-02-06T08:40:00.046Z,1.10
2023-02-06T08:42:32.858Z,1.00
2023-02-06T08:45:03.654Z,1.00
2023-02-06T08:47:33.976Z,1.67
2023-02-06T08:50:04.218Z,1.13
2023-02-06T08:52:34.422Z,0.90
2023-02-06T08:55:05.226Z,1.00
2023-02-06T08:57:37.742Z,1.05
2023-02-06T09:00:10.699Z,1.20
2023-02-06T09:02:41.308Z,0.95
2023-02-06T09:05:12.239Z,1.23
2023-02-06T09:07:43.478Z,0.95
2023-02-06T09:10:26.737Z,1.30
2023-02-06T09:13:00.616Z,1.30
2023-02-06T09:15:31.069Z,0.98
2023-02-06T09:18:01.737Z,0.85
2023-02-06T09:20:31.784Z,1.63
2023-02-06T09:23:01.728Z,1.50
2023-02-06T09:25:32.415Z,1.38
2023-02-06T09:28:07.291Z,1.30
2023-02-06T09:30:38.144Z,1.25
2023-02-06T09:33:08.864Z,1.05
2023-02-06T09:35:39.652Z,0.80
2023-02-06T09:38:09.936Z,1.05
2023-02-06T09:40:41.041Z,1.50
2023-02-06T09:43:17.045Z,1.25
2023-02-06T09:45:47.726Z,1.02
2023-02-06T09:48:24.817Z,1.40
2023-02-06T09:51:09.181Z,1.13
2023-02-06T09:53:55.128Z,1.05
2023-02-06T09:56:38.698Z,1.05
2023-02-06T09:59:27.882Z,1.15
2023-02-06T10:02:22.414Z,1.40
2023-02-06T10:05:03.583Z,1.25
2023-02-06T10:08:03.496Z,1.13
2023-02-06T10:10:41.077Z,1.23
2023-02-06T10:13:21.862Z,1.02
2023-02-06T10:16:02.436Z,0.90
2023-02-06T10:18:42.797Z,1.13
2023-02-06T10:21:28.163Z,1.00
2023-02-06T10:24:10.419Z,1.02
2023-02-06T10:26:43.372Z,1.23
2023-02-06T10:29:24.012Z,0.55
2023-02-06T10:32:19.325Z,0.80
2023-02-06T10:35:35.152Z,1.35
2023-02-06T10:38:34.743Z,1.10
2023-02-06T10:41:14.665Z,0.82
2023-02-06T10:43:56.040Z,0.73
2023-02-06T10:46:47.229Z,1.02
2023-02-06T10:49:28.604Z,1.17
2023-02-06T10:52:04.469Z,1.33
2023-02-06T10:54:41.301Z,1.00
2023-02-06T10:57:23.085Z,1.38
2023-02-06T10:59:58.347Z,1.02
2023-02-06T11:02:34.092Z,1.02
2023-02-06T11:05:12.317Z,0.80
2023-02-06T11:07:47.891Z,1.02
2023-02-06T11:10:21.925Z,1.00
2023-02-06T11:13:05.510Z,0.90
2023-02-06T11:15:46.854Z,0.70
2023-02-06T11:18:23.691Z,0.80
2023-02-06T11:20:55.937Z,0.68
2023-02-06T11:23:29.814Z,1.48
2023-02-06T11:26:14.512Z,1.10
2023-02-06T11:28:56.454Z,1.08
2023-02-06T11:31:44.431Z,1.00
2023-02-06T11:34:28.755Z,1.20
2023-02-06T11:37:03.403Z,0.98
2023-02-06T11:39:37.918Z,0.90
2023-02-06T11:42:23.436Z,0.88
2023-02-06T11:44:54.399Z,0.98
2023-02-06T11:47:33.269Z,0.90
2023-02-06T11:50:27.933Z,1.10
2023-02-06T11:53:13.179Z,0.90
2023-02-06T11:55:45.189Z,0.82
2023-02-06T11:58:27.666Z,1.02
2023-02-06T12:01:06.299Z,0.80
2023-02-06T12:03:41.251Z,1.10
2023-02-06T12:06:17.332Z,1.00
2023-02-06T12:08:55.028Z,0.70
2023-02-06T12:11:33.039Z,0.93
2023-02-06T12:14:19.221Z,0.47
2023-02-06T12:16:50.806Z,0.60
2023-02-06T12:19:26.534Z,0.20
2023-02-06T12:22:04.699Z,0.30
2023-02-06T12:24:44.383Z,0.40
2023-02-06T12:27:21.500Z,0.32
2023-02-06T12:30:02.257Z,0.52
2023-02-06T12:32:40.413Z,0.40
2023-02-06T12:35:24.459Z,0.32
2023-02-06T12:38:01.553Z,0.30
2023-02-06T12:40:50.147Z,0.40
2023-02-06T12:43:22.668Z,0.50
2023-02-06T12:46:00.313Z,0.63
2023-02-06T12:48:42.784Z,0.60
2023-02-06T12:51:24.729Z,0.40
2023-02-06T12:54:03.792Z,0.40
2023-02-06T12:56:44.330Z,0.22
2023-02-06T12:59:57.625Z,0.38
2023-02-06T13:03:04.649Z,0.20
2023-02-06T13:05:41.464Z,0.50
2023-02-06T13:08:17.922Z,0.50
2023-02-06T13:10:53.435Z,0.50
2023-02-06T13:13:37.955Z,0.43
2023-02-06T13:16:10.846Z,0.80
2023-02-06T13:18:57.176Z,0.80
2023-02-06T13:21:32.822Z,0.80
2023-02-06T13:24:22.075Z,0.77
2023-02-06T13:27:20.357Z,0.35
2023-02-06T13:29:54.295Z,0.70
2023-02-06T13:32:45.852Z,0.52
2023-02-06T13:35:30.332Z,0.68
2023-02-06T13:38:39.053Z,0.50
2023-02-06T13:41:37.626Z,0.35
2023-02-06T13:44:19.291Z,0.30
2023-02-06T13:47:28.009Z,0.30
2023-02-06T13:50:41.799Z,0.45
2023-02-06T13:53:49.034Z,0.30
2023-02-06T13:56:52.810Z,0.22
2023-02-06T13:59:31.109Z,0.20
2023-02-06T14:02:16.229Z,0.38
2023-02-06T14:04:48.628Z,0.22
2023-02-06T14:07:54.943Z,0.38
2023-02-06T14:11:23.073Z,0.28
2023-02-06T14:14:41.434Z,0.20
2023-02-06T14:17:31.894Z,0.30
2023-02-06T14:20:18.646Z,0.45
2023-02-06T14:23:03.386Z,0.40
2023-02-06T14:25:59.136Z,0.30
2023-02-06T14:28:44.331Z,0.20
2023-02-06T14:31:30.016Z,0.45
2023-02-06T14:34:36.460Z,0.40
2023-02-06T14:37:48.053Z,0.50
2023-02-06T14:40:24.337Z,0.22
2023-02-06T14:42:59.038Z,0.45
2023-02-06T14:45:41.598Z,0.40
2023-02-06T14:48:26.348Z,0.50
2023-02-06T14:51:01.438Z,0.65
2023-02-06T14:53:37.616Z,0.25
2023-02-06T14:56:20.344Z,0.57
2023-02-06T14:58:51.894Z,0.88
2023-02-06T15:01:31.191Z,0.75
2023-02-06T15:04:14.932Z,0.50
2023-02-06T15:06:55.299Z,0.40
2023-02-06T15:09:29.727Z,0.50
2023-02-06T15:12:02.859Z,0.40
2023-02-06T15:14:35.995Z,0.43
2023-02-06T15:17:06.868Z,0.70
2023-02-06T15:19:38.432Z,0.40
2023-02-06T15:22:17.219Z,0.38
2023-02-06T15:25:21.286Z,0.50
2023-02-06T15:27:52.077Z,0.45
2023-02-06T15:30:28.911Z,0.50
2023-02-06T15:32:59.768Z,0.32
2023-02-06T15:35:36.505Z,0.60
2023-02-06T15:38:13.508Z,0.30
2023-02-06T15:40:48.017Z,0.65
2023-02-06T15:43:21.652Z,0.70
2023-02-06T15:45:56.250Z,0.47
2023-02-06T15:48:35.080Z,0.38
2023-02-06T15:51:22.833Z,0.50
2023-02-06T15:54:09.065Z,0.40
2023-02-06T15:56:44.193Z,0.50
2023-02-06T15:59:23.625Z,0.50
2023-02-06T16:01:57.185Z,0.60
2023-02-06T16:04:35.643Z,0.60
2023-02-06T16:07:17.977Z,0.65
2023-02-06T16:09:57.597Z,0.20
2023-02-06T16:12:28.750Z,0.68
2023-02-06T16:15:01.873Z,0.70
2023-02-06T16:17:38.534Z,0.40
2023-02-06T16:20:29.394Z,0.40
2023-02-06T16:23:29.190Z,0.50
2023-02-06T16:26:09.892Z,0.40
2023-02-06T16:28:52.266Z,0.70
2023-02-06T16:31:22.546Z,0.65
2023-02-06T16:33:55.534Z,0.60
2023-02-06T16:36:27.175Z,0.52
2023-02-06T16:39:03.586Z,0.57
2023-02-06T16:41:39.195Z,0.65
2023-02-06T16:44:17.873Z,0.68
2023-02-06T16:46:48.474Z,0.60
2023-02-06T16:49:22.485Z,0.70
2023-02-06T16:51:56.334Z,0.50
2023-02-06T16:54:32.155Z,0.68
2023-02-06T16:57:12.186Z,0.65
2023-02-06T16:59:42.706Z,0.52
2023-02-06T17:02:15.990Z,0.57
2023-02-06T17:04:45.975Z,0.82
2023-02-06T17:07:23.538Z,0.70
2023-02-06T17:09:57.273Z,0.32
2023-02-06T17:12:29.655Z,0.70
2023-02-06T17:15:00.840Z,0.35
2023-02-06T17:17:31.751Z,0.60
2023-02-06T17:20:02.797Z,0.40
2023-02-06T17:22:33.465Z,0.57
2023-02-06T17:25:04.043Z,0.73
2023-02-06T17:27:36.127Z,0.63
2023-02-06T17:30:07.654Z,0.55
2023-02-06T17:32:38.335Z,0.88
2023-02-06T17:35:10.188Z,0.38
2023-02-06T17:37:41.100Z,0.57
2023-02-06T17:40:19.761Z,0.60
2023-02-06T17:42:54.492Z,0.32
2023-02-06T17:45:28.081Z,0.50
2023-02-06T17:47:58.860Z,0.50
2023-02-06T17:50:32.354Z,0.70
2023-02-06T17:53:04.655Z,0.47
2023-02-06T17:55:37.647Z,0.50
2023-02-06T17:58:09.807Z,0.82
2023-02-06T18:00:42.259Z,0.77
2023-02-06T18:03:17.656Z,0.88
2023-02-06T18:05:48.825Z,0.65
2023-02-06T18:08:19.807Z,1.10
2023-02-06T18:10:50.578Z,0.70
2023-02-06T18:13:25.415Z,0.98
2023-02-06T18:15:59.069Z,0.73
2023-02-06T18:18:29.291Z,0.82
2023-02-06T18:20:59.645Z,0.80
2023-02-06T18:23:31.453Z,0.60
2023-02-06T18:26:05.997Z,0.55
2023-02-06T18:28:39.816Z,0.55
2023-02-06T18:31:28.376Z,0.63
2023-02-06T18:34:00.101Z,0.45
2023-02-06T18:36:30.673Z,0.40
2023-02-06T18:39:00.831Z,0.50
2023-02-06T18:41:48.405Z,0.30
2023-02-06T18:44:21.394Z,0.70
2023-02-06T18:46:52.209Z,0.77
2023-02-06T18:49:23.104Z,0.70
2023-02-06T18:51:53.806Z,0.35
2023-02-06T18:54:25.265Z,0.32
2023-02-06T18:56:56.607Z,0.40
2023-02-06T18:59:29.480Z,0.60
2023-02-06T19:02:00.889Z,0.50
2023-02-06T19:04:31.255Z,0.32
2023-02-06T19:07:01.453Z,0.40
2023-02-06T19:09:32.776Z,0.60
2023-02-06T19:12:03.453Z,0.50
2023-02-06T19:14:36.495Z,0.70
2023-02-06T19:17:07.354Z,0.70
2023-02-06T19:19:37.753Z,0.70
2023-02-06T19:22:09.575Z,0.60
2023-02-06T19:24:42.517Z,0.40
2023-02-06T19:27:14.788Z,0.35
2023-02-06T19:29:47.204Z,0.77
2023-02-06T19:32:18.248Z,0.47
2023-02-06T19:34:48.857Z,0.50
2023-02-06T19:37:19.795Z,0.50
2023-02-06T19:39:51.092Z,0.40
2023-02-06T19:42:22.478Z,0.60
2023-02-06T19:44:57.802Z,0.82
2023-02-06T19:47:36.915Z,0.63
2023-02-06T19:50:08.910Z,0.52
2023-02-06T19:52:39.635Z,0.45
2023-02-06T19:55:11.533Z,0.50
2023-02-06T19:57:42.325Z,0.70
2023-02-06T20:00:17.913Z,0.50
2023-02-06T20:02:48.648Z,0.75
2023-02-06T20:05:20.811Z,0.73
2023-02-06T20:07:50.996Z,1.05
2023-02-06T20:10:21.976Z,0.70
2023-02-06T20:12:53.999Z,0.70
2023-02-06T20:15:26.701Z,0.63
2023-02-06T20:18:06.024Z,0.60
2023-02-06T20:20:38.348Z,0.60
2023-02-06T20:23:09.134Z,0.30
2023-02-06T20:25:41.490Z,0.85
2023-02-06T20:28:13.340Z,0.50
2023-02-06T20:30:46.010Z,0.65
2023-02-06T20:33:15.987Z,0.80
2023-02-06T20:35:47.197Z,0.60
2023-02-06T20:38:18.067Z,0.50
2023-02-06T20:40:54.983Z,0.80
2023-02-06T20:43:26.323Z,0.60
2023-02-06T20:45:58.628Z,0.40
2023-02-06T20:48:29.459Z,0.35
2023-02-06T20:51:00.933Z,0.55
2023-02-06T20:53:32.131Z,0.65
2023-02-06T20:56:02.305Z,0.43
2023-02-06T20:58:32.249Z,0.40
2023-02-06T21:01:05.364Z,0.60
2023-02-06T21:03:36.581Z,0.57
2023-02-06T21:06:08.075Z,0.70
2023-02-06T21:08:38.879Z,0.50
2023-02-06T21:11:09.950Z,0.77
2023-02-06T21:13:43.278Z,0.80
2023-02-06T21:16:16.945Z,0.70
2023-02-06T21:18:48.121Z,0.70
2023-02-06T21:21:19.080Z,0.70
2023-02-06T21:23:50.701Z,0.47
2023-02-06T21:26:21.482Z,0.82
2023-02-06T21:28:52.914Z,0.52
2023-02-06T21:31:34.792Z,0.50
2023-02-06T21:34:10.306Z,1.00
2023-02-06T21:36:42.474Z,0.55
2023-02-06T21:39:17.134Z,0.50
2023-02-06T21:41:52.140Z,0.20
2023-02-06T21:44:24.146Z,0.50
2023-02-06T21:46:58.368Z,0.70
2023-02-06T21:49:29.042Z,0.50
2023-02-06T21:52:02.173Z,0.50
2023-02-06T21:54:32.898Z,0.57
2023-02-06T21:57:03.089Z,0.60
2023-02-06T21:59:34.624Z,0.55
2023-02-06T22:02:07.013Z,0.65
2023-02-06T22:04:37.846Z,0.45
2023-02-06T22:07:12.190Z,0.43
2023-02-06T22:09:43.102Z,0.68
2023-02-06T22:12:13.792Z,0.52
2023-02-06T22:14:45.049Z,0.70
2023-02-06T22:17:18.400Z,0.65
2023-02-06T22:19:49.520Z,0.60
2023-02-06T22:22:19.385Z,0.57
2023-02-06T22:24:51.706Z,0.50
2023-02-06T22:27:22.136Z,0.80
2023-02-06T22:29:53.190Z,0.80
2023-02-06T22:32:27.848Z,0.40
2023-02-06T22:35:02.441Z,0.43
2023-02-06T22:37:35.677Z,0.77
2023-02-06T22:40:06.304Z,0.70
2023-02-06T22:42:37.295Z,0.60
2023-02-06T22:45:10.024Z,0.70
2023-02-06T22:47:43.369Z,0.57
2023-02-06T22:50:14.190Z,0.35
2023-02-06T22:53:01.168Z,0.45
2023-02-06T22:55:51.925Z,0.38
2023-02-06T22:58:22.525Z,0.80
2023-02-06T23:00:52.860Z,0.50
2023-02-06T23:03:25.185Z,0.50
2023-02-06T23:05:56.159Z,0.52
2023-02-06T23:08:26.383Z,0.73
2023-02-06T23:10:58.131Z,0.80
2023-02-06T23:13:29.372Z,0.70
2023-02-06T23:16:01.312Z,0.80
2023-02-06T23:18:34.981Z,0.45
2023-02-06T23:21:08.979Z,0.55
2023-02-06T23:23:40.121Z,0.80
2023-02-06T23:26:12.115Z,0.65
2023-02-06T23:28:42.607Z,0.70
2023-02-06T23:31:14.149Z,0.80
2023-02-06T23:33:46.158Z,0.50
2023-02-06T23:36:20.275Z,0.68
2023-02-06T23:38:51.445Z,0.70
2023-02-06T23:41:25.766Z,0.80
2023-02-06T23:43:59.594Z,0.88
2023-02-06T23:46:33.395Z,0.70
2023-02-06T23:49:07.386Z,0.70
2023-02-06T23:51:38.558Z,0.47
2023-02-06T23:54:11.458Z,0.57
2023-02-06T23:56:42.199Z,0.32
2023-02-06T23:59:15.505Z,0.43
